createdAt,value
2022-08-17T00:00:34.672Z,100377.69
2022-08-17T00:01:27.701Z,100378.78
2022-08-17T00:02:26.167Z,100376.41
2022-08-17T00:03:21.084Z,100378.28
2022-08-17T00:04:11.837Z,100376.41
2022-08-17T00:04:59.007Z,100375.59
2022-08-17T00:05:51.481Z,100378.00
2022-08-17T00:06:38.031Z,100376.41
2022-08-17T00:07:24.480Z,100376.41
2022-08-17T00:08:14.096Z,100378.78
2022-08-17T00:09:04.037Z,100371.81
2022-08-17T00:09:50.520Z,100374.50
2022-08-17T00:10:37.706Z,100378.78
2022-08-17T00:11:31.673Z,100378.47
2022-08-17T00:12:41.839Z,100376.91
2022-08-17T00:13:33.319Z,100373.59
2022-08-17T00:14:20.087Z,100377.06
2022-08-17T00:15:10.437Z,100377.56
2022-08-17T00:16:04.543Z,100373.28
2022-08-17T00:16:56.876Z,100370.75
2022-08-17T00:17:47.409Z,100369.97
2022-08-17T00:19:01.957Z,100368.84
2022-08-17T00:19:41.721Z,100372.38
2022-08-17T00:20:33.462Z,100370.44
2022-08-17T00:21:24.010Z,100368.69
2022-08-17T00:22:33.853Z,100370.56
2022-08-17T00:23:18.733Z,100372.19
2022-08-17T00:24:05.548Z,100373.59
2022-08-17T00:24:52.057Z,100361.72
2022-08-17T00:25:43.878Z,100364.88
2022-08-17T00:26:34.891Z,100372.19
2022-08-17T00:27:31.851Z,100363.59
2022-08-17T00:28:21.056Z,100368.97
2022-08-17T00:29:08.616Z,100369.78
2022-08-17T00:29:55.042Z,100371.41
2022-08-17T00:30:48.495Z,100362.03
2022-08-17T00:31:37.939Z,100367.69
2022-08-17T00:33:12.481Z,100367.41
2022-08-17T00:33:31.863Z,100372.00
2022-08-17T00:34:18.881Z,100366.41
2022-08-17T00:35:08.617Z,100371.81
2022-08-17T00:35:58.114Z,100364.53
2022-08-17T00:36:44.847Z,100364.22
2022-08-17T00:37:31.297Z,100363.72
2022-08-17T00:38:18.611Z,100357.22
2022-08-17T00:39:05.475Z,100364.81
2022-08-17T00:39:52.292Z,100362.13
2022-08-17T00:40:48.095Z,100361.66
2022-08-17T00:41:35.725Z,100359.44
2022-08-17T00:42:22.241Z,100355.63
2022-08-17T00:43:29.950Z,100354.53
2022-08-17T00:44:16.872Z,100354.53
2022-08-17T00:45:09.502Z,100351.53
2022-08-17T00:45:56.640Z,100345.66
2022-08-17T00:46:44.487Z,100347.25
2022-08-17T00:47:31.070Z,100346.44
2022-08-17T00:48:29.340Z,100349.44
2022-08-17T00:49:19.556Z,100350.88
2022-08-17T00:50:09.919Z,100353.75
2022-08-17T00:51:05.401Z,100354.53
2022-08-17T00:52:11.897Z,100350.72
2022-08-17T00:52:58.869Z,100342.66
2022-08-17T00:53:54.001Z,100339.94
2022-08-17T00:54:44.649Z,100346.44
2022-08-17T00:55:32.774Z,100348.81
2022-08-17T00:56:28.343Z,100348.03
2022-08-17T00:57:24.411Z,100340.25
2022-08-17T00:58:11.098Z,100345.66
2022-08-17T00:58:58.674Z,100346.25
2022-08-17T01:00:03.670Z,100341.19
2022-08-17T01:00:51.813Z,100347.66
2022-08-17T01:01:39.795Z,100339.72
2022-08-17T01:02:29.454Z,100340.81
2022-08-17T01:03:25.856Z,100343.81
2022-08-17T01:04:13.698Z,100336.34
2022-08-17T01:05:01.515Z,100342.84
2022-08-17T01:05:53.142Z,100344.53
2022-08-17T01:06:42.761Z,100340.28
2022-08-17T01:07:29.629Z,100343.88
2022-08-17T01:08:23.293Z,100338.28
2022-08-17T01:09:10.324Z,100346.69
2022-08-17T01:09:57.343Z,100342.53
2022-08-17T01:10:59.735Z,100351.69
2022-08-17T01:11:52.537Z,100344.72
2022-08-17T01:12:39.285Z,100343.13
2022-08-17T01:13:27.679Z,100348.03
2022-08-17T01:14:14.486Z,100342.44
2022-08-17T01:15:00.998Z,100345.44
2022-08-17T01:16:00.297Z,100354.13
2022-08-17T01:16:49.348Z,100338.88
2022-08-17T01:17:35.996Z,100346.34
2022-08-17T01:18:22.939Z,100347.75
2022-08-17T01:19:20.111Z,100351.03
2022-08-17T01:20:07.048Z,100352.16
2022-08-17T01:20:56.291Z,100348.78
2022-08-17T01:21:59.986Z,100351.28
2022-08-17T01:22:46.692Z,100348.66
2022-08-17T01:23:33.726Z,100350.56
2022-08-17T01:24:20.362Z,100346.59
2022-08-17T01:25:09.026Z,100346.59
2022-08-17T01:26:02.204Z,100347.19
2022-08-17T01:26:49.121Z,100338.13
2022-08-17T01:27:38.259Z,100344.19
2022-08-17T01:28:52.168Z,100354.28
2022-08-17T01:29:39.151Z,100352.06
2022-08-17T01:30:57.852Z,100350.47
2022-08-17T01:31:42.529Z,100350.59
2022-08-17T01:32:30.335Z,100350.09
2022-08-17T01:33:17.007Z,100348.50
2022-08-17T01:34:08.426Z,100346.41
2022-08-17T01:34:55.351Z,100352.06
2022-08-17T01:35:42.206Z,100351.09
2022-08-17T01:36:28.889Z,100348.69
2022-08-17T01:37:16.865Z,100350.88
2022-08-17T01:38:03.792Z,100343.31
2022-08-17T01:38:50.389Z,100354.50
2022-08-17T01:39:48.022Z,100343.81
2022-08-17T01:40:38.993Z,100354.88
2022-08-17T01:41:26.946Z,100351.69
2022-08-17T01:42:34.953Z,100352.50
2022-08-17T01:43:28.584Z,100346.91
2022-08-17T01:44:16.744Z,100353.56
2022-08-17T01:45:12.446Z,100349.28
2022-08-17T01:46:04.020Z,100353.88
2022-08-17T01:46:50.754Z,100348.78
2022-08-17T01:47:38.728Z,100341.13
2022-08-17T01:48:35.298Z,100347.63
2022-08-17T01:49:21.773Z,100342.03
2022-08-17T01:50:15.665Z,100353.00
2022-08-17T01:51:02.483Z,100350.59
2022-08-17T01:51:49.434Z,100357.28
2022-08-17T01:52:36.143Z,100359.69
2022-08-17T01:53:30.101Z,100352.50
2022-08-17T01:54:19.927Z,100359.88
2022-08-17T01:55:07.220Z,100355.06
2022-08-17T01:56:01.972Z,100350.31
2022-08-17T01:56:51.411Z,100351.09
2022-08-17T01:57:37.981Z,100354.59
2022-08-17T01:58:24.474Z,100355.69
2022-08-17T01:59:12.842Z,100357.56
2022-08-17T01:59:59.758Z,100357.09
2022-08-17T02:01:01.276Z,100360.38
2022-08-17T02:01:48.932Z,100356.28
2022-08-17T02:02:35.457Z,100353.69
2022-08-17T02:03:24.210Z,100366.06
2022-08-17T02:04:11.603Z,100369.84
2022-08-17T02:04:58.238Z,100364.16
2022-08-17T02:05:45.344Z,100372.53
2022-08-17T02:06:47.083Z,100367.13
2022-08-17T02:08:00.402Z,100368.22
2022-08-17T02:09:02.724Z,100365.25
2022-08-17T02:09:52.716Z,100357.47
2022-08-17T02:10:39.437Z,100360.47
2022-08-17T02:11:36.053Z,100356.28
2022-08-17T02:12:38.080Z,100363.06
2022-08-17T02:13:29.583Z,100354.41
2022-08-17T02:14:16.110Z,100350.69
2022-08-17T02:15:02.632Z,100355.09
2022-08-17T02:15:49.062Z,100358.28
2022-08-17T02:16:38.366Z,100362.84
2022-08-17T02:17:24.869Z,100354.56
2022-08-17T02:18:12.461Z,100356.78
2022-08-17T02:18:59.679Z,100363.25
2022-08-17T02:19:46.165Z,100358.47
2022-08-17T02:20:36.424Z,100357.97
2022-08-17T02:21:29.183Z,100352.09
2022-08-17T02:22:18.212Z,100355.09
2022-08-17T02:23:08.819Z,100353.78
2022-08-17T02:23:56.315Z,100351.69
2022-08-17T02:25:00.414Z,100355.50
2022-08-17T02:25:50.027Z,100357.38
2022-08-17T02:26:37.215Z,100353.88
2022-08-17T02:27:23.861Z,100353.06
2022-08-17T02:28:11.187Z,100357.97
2022-08-17T02:28:57.793Z,100355.50
2022-08-17T02:29:44.345Z,100349.91
2022-08-17T02:31:01.866Z,100349.41
2022-08-17T02:31:37.810Z,100352.69
2022-08-17T02:32:28.143Z,100345.72
2022-08-17T02:33:15.256Z,100351.88
2022-08-17T02:34:03.822Z,100351.09
2022-08-17T02:34:54.500Z,100352.19
2022-08-17T02:35:42.865Z,100350.56
2022-08-17T02:36:29.365Z,100343.59
2022-08-17T02:37:17.774Z,100343.13
2022-08-17T02:38:06.407Z,100353.38
2022-08-17T02:38:53.172Z,100346.28
2022-08-17T02:39:39.799Z,100350.56
2022-08-17T02:40:35.794Z,100348.75
2022-08-17T02:41:23.245Z,100350.66
2022-08-17T02:42:09.714Z,100344.53
2022-08-17T02:42:56.965Z,100346.22
2022-08-17T02:43:43.501Z,100348.81
2022-08-17T02:44:39.045Z,100339.16
2022-08-17T02:45:27.042Z,100340.53
2022-08-17T02:46:13.561Z,100337.06
2022-08-17T02:47:00.535Z,100340.84
2022-08-17T02:47:47.282Z,100336.06
2022-08-17T02:48:33.750Z,100340.94
2022-08-17T02:49:20.251Z,100349.00
2022-08-17T02:50:09.331Z,100342.31
2022-08-17T02:50:55.794Z,100346.41
2022-08-17T02:51:42.266Z,100358.25
2022-08-17T02:52:42.945Z,100343.81
2022-08-17T02:53:35.623Z,100341.13
2022-08-17T02:54:39.437Z,100344.28
2022-08-17T02:55:34.751Z,100343.50
2022-08-17T02:56:21.590Z,100347.56
2022-08-17T02:57:08.090Z,100346.78
2022-08-17T02:57:55.631Z,100343.81
2022-08-17T02:58:42.378Z,100341.41
2022-08-17T02:59:30.019Z,100339.81
2022-08-17T03:00:24.652Z,100345.19
2022-08-17T03:01:11.308Z,100346.56
2022-08-17T03:01:57.861Z,100357.31
2022-08-17T03:02:45.529Z,100349.53
2022-08-17T03:03:32.907Z,100352.03
2022-08-17T03:04:20.685Z,100340.78
2022-08-17T03:05:08.921Z,100346.16
2022-08-17T03:05:55.363Z,100348.84
2022-08-17T03:06:42.614Z,100351.00
2022-08-17T03:07:30.444Z,100347.75
2022-08-17T03:08:17.980Z,100349.91
2022-08-17T03:09:04.724Z,100344.53
2022-08-17T03:09:53.891Z,100347.53
2022-08-17T03:10:41.275Z,100342.94
2022-08-17T03:11:27.860Z,100350.53
2022-08-17T03:12:15.016Z,100342.25
2022-08-17T03:13:01.628Z,100344.63
2022-08-17T03:13:48.388Z,100339.56
2022-08-17T03:14:41.492Z,100339.63
2022-08-17T03:15:31.713Z,100336.94
2022-08-17T03:16:19.361Z,100338.13
2022-08-17T03:17:06.738Z,100348.56
2022-08-17T03:17:55.008Z,100345.38
2022-08-17T03:18:41.492Z,100348.34
2022-08-17T03:19:27.966Z,100343.56
2022-08-17T03:20:16.187Z,100345.66
2022-08-17T03:21:04.448Z,100352.94
2022-08-17T03:21:55.059Z,100354.81
2022-08-17T03:22:48.066Z,100351.34
2022-08-17T03:23:42.053Z,100347.56
2022-08-17T03:24:29.127Z,100346.63
2022-08-17T03:25:21.370Z,100345.59
2022-08-17T03:26:12.292Z,100347.78
2022-08-17T03:27:02.208Z,100354.44
2022-08-17T03:27:48.730Z,100347.28
2022-08-17T03:28:38.920Z,100348.38
2022-08-17T03:29:25.403Z,100352.13
2022-08-17T03:30:13.497Z,100351.56
2022-08-17T03:31:00.008Z,100355.03
2022-08-17T03:31:46.813Z,100346.75
2022-08-17T03:32:44.436Z,100346.25
2022-08-17T03:33:31.368Z,100349.75
2022-08-17T03:34:18.185Z,100345.16
2022-08-17T03:35:05.129Z,100346.25
2022-08-17T03:35:51.941Z,100347.06
2022-08-17T03:36:38.414Z,100343.56
2022-08-17T03:37:24.930Z,100348.16
2022-08-17T03:38:13.360Z,100339.22
2022-08-17T03:39:02.423Z,100340.84
2022-08-17T03:39:49.314Z,100346.19
2022-08-17T03:40:57.288Z,100341.09
2022-08-17T03:41:43.379Z,100339.06
2022-08-17T03:42:31.792Z,100332.69
2022-08-17T03:43:22.380Z,100344.59
2022-08-17T03:44:09.018Z,100335.72
2022-08-17T03:44:59.370Z,100343.78
2022-08-17T03:46:04.943Z,100343.00
2022-08-17T03:47:11.070Z,100341.41
2022-08-17T03:48:16.019Z,100351.44
2022-08-17T03:49:24.266Z,100343.16
2022-08-17T03:50:38.408Z,100348.53
2022-08-17T03:51:43.550Z,100335.16
2022-08-17T03:52:51.895Z,100354.22
2022-08-17T03:54:08.402Z,100348.88
2022-08-17T03:55:14.624Z,100345.69
2022-08-17T03:56:22.290Z,100349.72
2022-08-17T03:57:11.633Z,100344.34
2022-08-17T03:57:58.120Z,100338.97
2022-08-17T03:58:45.427Z,100342.47
2022-08-17T03:59:33.594Z,100343.00
2022-08-17T04:00:20.056Z,100341.66
2022-08-17T04:01:07.158Z,100348.59
2022-08-17T04:01:58.917Z,100344.78
2022-08-17T04:02:45.409Z,100345.91
2022-08-17T04:03:31.988Z,100348.78
2022-08-17T04:04:19.908Z,100343.16
2022-08-17T04:05:15.162Z,100345.53
2022-08-17T04:06:02.188Z,100351.44
2022-08-17T04:06:48.687Z,100344.44
2022-08-17T04:07:35.285Z,100349.22
2022-08-17T04:08:21.758Z,100355.13
2022-08-17T04:09:09.562Z,100347.38
2022-08-17T04:09:57.799Z,100349.97
2022-08-17T04:10:45.253Z,100355.84
2022-08-17T04:11:33.196Z,100350.47
2022-08-17T04:12:22.699Z,100354.97
2022-08-17T04:13:09.860Z,100353.06
2022-08-17T04:13:56.744Z,100352.28
2022-08-17T04:14:53.124Z,100355.19
2022-08-17T04:15:41.900Z,100360.78
2022-08-17T04:16:29.360Z,100360.78
2022-08-17T04:17:15.878Z,100362.09
2022-08-17T04:18:03.014Z,100363.38
2022-08-17T04:18:51.105Z,100366.28
2022-08-17T04:19:37.528Z,100359.00
2022-08-17T04:20:25.153Z,100364.91
2022-08-17T04:21:11.712Z,100363.53
2022-08-17T04:21:58.373Z,100360.53
2022-08-17T04:23:09.416Z,100365.63
2022-08-17T04:23:58.798Z,100357.28
2022-08-17T04:24:45.250Z,100358.84
2022-08-17T04:25:34.802Z,100353.78
2022-08-17T04:26:54.203Z,100364.16
2022-08-17T04:27:29.267Z,100364.97
2022-08-17T04:28:17.390Z,100355.00
2022-08-17T04:29:03.986Z,100364.09
2022-08-17T04:29:54.600Z,100363.78
2022-08-17T04:30:45.079Z,100365.38
2022-08-17T04:31:33.161Z,100355.94
2022-08-17T04:32:23.090Z,100362.09
2022-08-17T04:33:28.763Z,100352.75
2022-08-17T04:34:16.734Z,100359.13
2022-08-17T04:35:06.709Z,100360.22
2022-08-17T04:35:58.143Z,100355.63
2022-08-17T04:36:50.348Z,100364.22
2022-08-17T04:37:37.175Z,100365.53
2022-08-17T04:38:29.253Z,100360.94
2022-08-17T04:39:15.870Z,100364.13
2022-08-17T04:40:21.337Z,100369.72
2022-08-17T04:41:27.549Z,100368.59
2022-08-17T04:42:17.359Z,100366.13
2022-08-17T04:43:08.449Z,100369.84
2022-08-17T04:43:58.123Z,100368.72
2022-08-17T04:44:44.578Z,100369.78
2022-08-17T04:45:32.317Z,100375.72
2022-08-17T04:46:22.372Z,100374.84
2022-08-17T04:47:10.556Z,100361.72
2022-08-17T04:48:00.628Z,100376.16
2022-08-17T04:48:50.912Z,100370.00
2022-08-17T04:49:37.935Z,100373.47
2022-08-17T04:50:24.993Z,100368.59
2022-08-17T04:51:16.704Z,100372.88
2022-08-17T04:52:04.680Z,100362.41
2022-08-17T04:52:51.423Z,100380.25
2022-08-17T04:53:39.918Z,100374.59
2022-08-17T04:54:26.982Z,100373.50
2022-08-17T04:55:15.329Z,100369.72
2022-08-17T04:56:02.004Z,100376.38
2022-08-17T04:56:49.196Z,100373.69
2022-08-17T04:57:39.479Z,100379.59
2022-08-17T04:58:28.547Z,100377.38
2022-08-17T04:59:22.506Z,100374.91
2022-08-17T05:00:10.654Z,100381.56
2022-08-17T05:00:57.207Z,100374.03
2022-08-17T05:01:47.393Z,100383.59
2022-08-17T05:02:34.361Z,100378.69
2022-08-17T05:03:21.059Z,100375.22
2022-08-17T05:04:33.537Z,100372.22
2022-08-17T05:05:36.275Z,100385.28
2022-08-17T05:06:23.678Z,100379.09
2022-08-17T05:07:10.941Z,100375.94
2022-08-17T05:08:00.043Z,100370.25
2022-08-17T05:08:46.528Z,100375.00
2022-08-17T05:09:33.099Z,100373.03
2022-08-17T05:10:21.129Z,100373.50
2022-08-17T05:11:07.709Z,100371.03
2022-08-17T05:11:55.346Z,100373.44
2022-08-17T05:12:43.391Z,100365.84
2022-08-17T05:13:29.966Z,100371.72
2022-08-17T05:14:17.780Z,100370.34
2022-08-17T05:15:04.888Z,100366.75
2022-08-17T05:15:55.344Z,100372.59
2022-08-17T05:16:42.004Z,100378.19
2022-08-17T05:17:28.454Z,100374.41
2022-08-17T05:18:16.585Z,100371.09
2022-08-17T05:19:03.789Z,100370.81
2022-08-17T05:19:52.085Z,100383.16
2022-08-17T05:20:40.612Z,100372.63
2022-08-17T05:21:27.555Z,100369.66
2022-08-17T05:22:14.395Z,100375.50
2022-08-17T05:23:07.016Z,100373.81
2022-08-17T05:23:54.850Z,100372.13
2022-08-17T05:24:53.330Z,100377.69
2022-08-17T05:25:47.698Z,100372.50
2022-08-17T05:26:34.442Z,100372.50
2022-08-17T05:27:23.555Z,100376.00
2022-08-17T05:28:11.537Z,100369.19
2022-08-17T05:29:00.436Z,100368.09
2022-08-17T05:29:49.365Z,100371.78
2022-08-17T05:30:37.963Z,100361.19
2022-08-17T05:31:24.769Z,100372.47
2022-08-17T05:32:38.496Z,100361.38
2022-08-17T05:33:26.627Z,100359.00
2022-08-17T05:34:13.102Z,100359.78
2022-08-17T05:35:00.328Z,100363.75
2022-08-17T05:35:49.872Z,100366.97
2022-08-17T05:36:44.050Z,100362.16
2022-08-17T05:37:31.148Z,100363.75
2022-08-17T05:38:21.026Z,100364.88
2022-08-17T05:39:07.673Z,100371.06
2022-08-17T05:39:54.313Z,100358.81
2022-08-17T05:40:41.129Z,100367.25
2022-08-17T05:41:27.568Z,100370.75
2022-08-17T05:42:18.977Z,100368.06
2022-08-17T05:43:16.955Z,100372.63
2022-08-17T05:44:05.372Z,100367.75
2022-08-17T05:44:52.250Z,100362.03
2022-08-17T05:45:55.521Z,100356.66
2022-08-17T05:46:49.265Z,100357.47
2022-08-17T05:47:39.160Z,100357.94
2022-08-17T05:48:35.464Z,100359.53
2022-08-17T05:49:28.689Z,100361.13
2022-08-17T05:50:29.877Z,100358.13
2022-08-17T05:51:53.130Z,100366.41
2022-08-17T05:53:17.220Z,100368.50
2022-08-17T05:54:06.640Z,100369.47
2022-08-17T05:55:13.702Z,100375.06
2022-08-17T05:56:27.977Z,100375.25
2022-08-17T05:57:36.040Z,100371.63
2022-08-17T05:58:55.480Z,100371.94
2022-08-17T05:59:57.458Z,100370.72
2022-08-17T06:01:03.852Z,100370.13
2022-08-17T06:02:05.432Z,100375.97
2022-08-17T06:03:15.023Z,100367.75
2022-08-17T06:04:16.824Z,100365.78
2022-08-17T06:05:30.930Z,100361.03
2022-08-17T06:06:36.604Z,100370.31
2022-08-17T06:07:39.552Z,100368.88
2022-08-17T06:08:39.653Z,100368.44
2022-08-17T06:09:40.107Z,100376.41
2022-08-17T06:10:35.437Z,100371.97
2022-08-17T06:11:58.729Z,100377.41
2022-08-17T06:13:00.373Z,100373.00
2022-08-17T06:14:00.802Z,100371.75
2022-08-17T06:15:07.359Z,100376.38
2022-08-17T06:16:33.247Z,100376.72
2022-08-17T06:17:22.120Z,100381.84
2022-08-17T06:18:14.807Z,100390.47
2022-08-17T06:19:39.126Z,100401.59
2022-08-17T06:20:32.965Z,100399.06
2022-08-17T06:21:23.770Z,100404.97
2022-08-17T06:22:22.022Z,100414.03
2022-08-17T06:23:18.182Z,100412.97
2022-08-17T06:24:30.091Z,100413.44
2022-08-17T06:25:34.734Z,100420.59
2022-08-17T06:26:37.249Z,100399.81
2022-08-17T06:28:02.914Z,100409.19
2022-08-17T06:29:18.718Z,100413.66
2022-08-17T06:30:17.629Z,100414.94
2022-08-17T06:31:31.300Z,100413.34
2022-08-17T06:32:18.765Z,100416.50
2022-08-17T06:33:16.996Z,100428.91
2022-08-17T06:34:09.151Z,100431.00
2022-08-17T06:34:57.413Z,100426.69
2022-08-17T06:36:16.069Z,100431.16
2022-08-17T06:37:18.872Z,100432.59
2022-08-17T06:38:37.540Z,100431.91
2022-08-17T06:39:48.166Z,100433.97
2022-08-17T06:40:49.707Z,100424.13
2022-08-17T06:41:44.914Z,100422.84
2022-08-17T06:43:06.429Z,100429.53
2022-08-17T06:44:12.649Z,100429.03
2022-08-17T06:45:34.825Z,100428.88
2022-08-17T06:46:46.215Z,100433.19
2022-08-17T06:47:41.680Z,100431.88
2022-08-17T06:48:40.167Z,100445.06
2022-08-17T06:49:42.208Z,100450.13
2022-08-17T06:50:30.148Z,100437.22
2022-08-17T06:51:30.021Z,100444.25
2022-08-17T06:52:56.058Z,100447.84
2022-08-17T06:53:45.426Z,100453.03
2022-08-17T06:54:59.426Z,100446.75
2022-08-17T06:56:12.773Z,100452.88
2022-08-17T06:57:14.797Z,100444.16
2022-08-17T06:58:16.313Z,100442.78
2022-08-17T06:59:08.108Z,100449.53
2022-08-17T07:00:01.847Z,100452.38
2022-08-17T07:00:58.708Z,100449.72
2022-08-17T07:01:50.066Z,100451.81
2022-08-17T07:03:02.377Z,100446.69
2022-08-17T07:03:59.368Z,100446.25
2022-08-17T07:04:52.466Z,100446.09
2022-08-17T07:05:47.938Z,100446.09
2022-08-17T07:06:49.276Z,100443.03
2022-08-17T07:07:58.463Z,100436.22
2022-08-17T07:09:07.378Z,100444.16
2022-08-17T07:09:59.781Z,100444.84
2022-08-17T07:10:53.714Z,100440.28
2022-08-17T07:11:54.480Z,100441.22
2022-08-17T07:12:45.634Z,100446.50
2022-08-17T07:13:53.388Z,100444.72
2022-08-17T07:15:07.726Z,100437.41
2022-08-17T07:16:07.503Z,100442.00
2022-08-17T07:16:58.006Z,100436.25
2022-08-17T07:17:48.358Z,100435.13
2022-08-17T07:18:35.150Z,100439.28
2022-08-17T07:19:26.289Z,100437.34
2022-08-17T07:20:17.882Z,100434.84
2022-08-17T07:21:31.653Z,100439.56
2022-08-17T07:22:50.393Z,100432.53
2022-08-17T07:24:02.489Z,100439.75
2022-08-17T07:24:59.495Z,100437.97
2022-08-17T07:25:46.680Z,100446.25
2022-08-17T07:26:33.531Z,100446.44
2022-08-17T07:27:22.974Z,100442.72
2022-08-17T07:28:09.618Z,100441.94
2022-08-17T07:28:56.503Z,100437.97
2022-08-17T07:29:50.421Z,100451.53
2022-08-17T07:30:47.337Z,100447.91
2022-08-17T07:31:34.564Z,100459.59
2022-08-17T07:32:26.273Z,100453.06
2022-08-17T07:33:20.205Z,100456.94
2022-08-17T07:34:14.314Z,100465.94
2022-08-17T07:35:23.106Z,100480.41
2022-08-17T07:36:30.218Z,100475.78
2022-08-17T07:37:19.435Z,100480.09
2022-08-17T07:38:24.732Z,100491.53
2022-08-17T07:39:27.746Z,100492.44
2022-08-17T07:40:26.839Z,100489.03
2022-08-17T07:41:13.784Z,100489.44
2022-08-17T07:42:04.829Z,100482.16
2022-08-17T07:43:22.244Z,100493.63
2022-08-17T07:44:13.466Z,100485.56
2022-08-17T07:45:22.932Z,100491.53
2022-08-17T07:46:53.799Z,100494.50
2022-08-17T07:47:59.095Z,100488.97
2022-08-17T07:48:50.675Z,100486.94
2022-08-17T07:49:41.455Z,100488.66
2022-08-17T07:50:29.583Z,100495.88
2022-08-17T07:51:31.144Z,100495.44
2022-08-17T07:52:50.797Z,100492.59
2022-08-17T07:53:38.952Z,100494.75
2022-08-17T07:54:35.616Z,100492.81
2022-08-17T07:55:31.512Z,100500.03
2022-08-17T07:56:38.204Z,100507.69
2022-08-17T07:57:34.139Z,100503.66
2022-08-17T07:58:23.734Z,100503.31
2022-08-17T07:59:17.959Z,100499.13
2022-08-17T08:00:19.341Z,100494.88
2022-08-17T08:01:15.462Z,100496.13
2022-08-17T08:02:16.991Z,100499.09
2022-08-17T08:03:15.906Z,100490.06
2022-08-17T08:04:03.381Z,100503.19
2022-08-17T08:05:30.682Z,100500.28
2022-08-17T08:06:27.872Z,100504.66
2022-08-17T08:07:17.359Z,100505.56
2022-08-17T08:08:18.567Z,100500.63
2022-08-17T08:09:05.045Z,100513.69
2022-08-17T08:10:04.592Z,100510.28
2022-08-17T08:11:06.110Z,100499.91
2022-08-17T08:11:52.867Z,100506.63
2022-08-17T08:12:41.764Z,100503.97
2022-08-17T08:13:30.144Z,100508.16
2022-08-17T08:14:28.519Z,100515.81
2022-08-17T08:15:18.659Z,100506.22
2022-08-17T08:16:17.019Z,100506.09
2022-08-17T08:17:09.418Z,100503.50
2022-08-17T08:18:02.898Z,100503.25
2022-08-17T08:18:56.859Z,100507.38
2022-08-17T08:19:45.422Z,100499.91
2022-08-17T08:20:53.464Z,100505.88
2022-08-17T08:22:05.976Z,100511.38
2022-08-17T08:23:06.116Z,100507.84
2022-08-17T08:24:00.118Z,100507.78
2022-08-17T08:25:07.871Z,100505.53
2022-08-17T08:26:27.385Z,100499.81
2022-08-17T08:27:31.217Z,100508.63
2022-08-17T08:28:37.011Z,100511.94
2022-08-17T08:29:55.253Z,100507.66
2022-08-17T08:30:49.137Z,100509.00
2022-08-17T08:31:50.803Z,100509.94
2022-08-17T08:33:10.487Z,100508.88
2022-08-17T08:34:49.731Z,100509.31
2022-08-17T08:35:53.765Z,100509.00
2022-08-17T08:37:16.008Z,100511.34
2022-08-17T08:38:38.487Z,100519.00
2022-08-17T08:39:42.058Z,100511.53
2022-08-17T08:41:12.660Z,100511.22
2022-08-17T08:42:13.114Z,100514.59
2022-08-17T08:43:52.229Z,100506.56
2022-08-17T08:45:05.061Z,100509.81
2022-08-17T08:46:10.238Z,100507.34
2022-08-17T08:47:19.411Z,100505.34
2022-08-17T08:48:52.816Z,100503.16
2022-08-17T08:50:03.865Z,100506.53
2022-08-17T08:51:05.155Z,100505.53
2022-08-17T08:51:56.015Z,100504.47
2022-08-17T08:53:10.412Z,100508.97
2022-08-17T08:54:35.052Z,100494.47
2022-08-17T08:55:32.397Z,100497.06
2022-08-17T08:56:53.777Z,100500.88
2022-08-17T08:58:00.639Z,100503.56
2022-08-17T08:59:25.807Z,100498.13
2022-08-17T09:00:20.045Z,100503.78
2022-08-17T09:01:20.827Z,100496.31
2022-08-17T09:02:42.989Z,100503.00
2022-08-17T09:04:06.728Z,100511.94
2022-08-17T09:05:38.162Z,100522.16
2022-08-17T09:06:51.100Z,100516.88
2022-08-17T09:07:49.768Z,100515.91
2022-08-17T09:08:59.510Z,100520.47
2022-08-17T09:10:07.097Z,100519.91
2022-08-17T09:11:00.537Z,100526.31
2022-08-17T09:12:05.091Z,100525.69
2022-08-17T09:13:18.746Z,100528.69
2022-08-17T09:14:21.736Z,100526.34
2022-08-17T09:15:33.438Z,100543.41
2022-08-17T09:16:29.753Z,100527.81
2022-08-17T09:17:23.062Z,100529.13
2022-08-17T09:19:00.248Z,100531.81
2022-08-17T09:19:39.040Z,100537.69
2022-08-17T09:20:46.633Z,100527.75
2022-08-17T09:22:19.132Z,100523.03
2022-08-17T09:23:13.755Z,100528.31
2022-08-17T09:24:20.779Z,100531.66
2022-08-17T09:25:12.544Z,100533.53
2022-08-17T09:26:23.939Z,100522.16
2022-08-17T09:27:19.960Z,100529.53
2022-08-17T09:28:19.093Z,100528.88
2022-08-17T09:29:12.718Z,100528.50
2022-08-17T09:30:06.821Z,100528.72
2022-08-17T09:31:04.158Z,100535.59
2022-08-17T09:32:01.517Z,100532.56
2022-08-17T09:32:56.285Z,100531.78
2022-08-17T09:33:46.655Z,100539.56
2022-08-17T09:34:49.645Z,100542.63
2022-08-17T09:35:44.597Z,100547.50
2022-08-17T09:36:40.491Z,100541.34
2022-08-17T09:37:48.933Z,100541.63
2022-08-17T09:38:52.613Z,100541.94
2022-08-17T09:39:50.819Z,100540.56
2022-08-17T09:41:09.087Z,100537.34
2022-08-17T09:42:13.493Z,100542.38
2022-08-17T09:43:20.815Z,100539.38
2022-08-17T09:44:36.713Z,100532.63
2022-08-17T09:45:37.652Z,100541.16
2022-08-17T09:46:48.423Z,100546.78
2022-08-17T09:47:45.848Z,100544.44
2022-08-17T09:49:09.688Z,100543.06
2022-08-17T09:51:05.453Z,100541.75
2022-08-17T09:51:36.707Z,100544.75
2022-08-17T09:52:26.536Z,100547.78
2022-08-17T09:53:13.535Z,100548.41
2022-08-17T09:54:21.365Z,100542.66
2022-08-17T09:55:10.257Z,100543.44
2022-08-17T09:56:19.480Z,100546.63
2022-08-17T09:57:31.639Z,100548.47
2022-08-17T09:58:56.427Z,100538.09
2022-08-17T10:00:17.275Z,100537.00
2022-08-17T10:01:25.521Z,100538.91
2022-08-17T10:02:42.678Z,100537.63
2022-08-17T10:03:41.448Z,100545.13
2022-08-17T10:04:56.329Z,100549.75
2022-08-17T10:06:07.795Z,100549.78
2022-08-17T10:07:14.678Z,100550.41
2022-08-17T10:08:22.817Z,100554.75
2022-08-17T10:09:42.190Z,100546.09
2022-08-17T10:10:43.372Z,100543.06
2022-08-17T10:12:11.305Z,100538.81
2022-08-17T10:13:18.406Z,100533.06
2022-08-17T10:14:37.735Z,100523.69
2022-08-17T10:15:36.694Z,100515.75
2022-08-17T10:16:55.804Z,100514.66
2022-08-17T10:18:07.355Z,100521.69
2022-08-17T10:18:53.836Z,100514.84
2022-08-17T10:20:08.828Z,100508.94
2022-08-17T10:21:26.207Z,100514.53
2022-08-17T10:22:43.623Z,100512.91
2022-08-17T10:23:49.828Z,100504.16
2022-08-17T10:25:23.227Z,100504.28
2022-08-17T10:26:20.641Z,100509.69
2022-08-17T10:27:16.128Z,100509.19
2022-08-17T10:28:14.244Z,100512.16
2022-08-17T10:29:22.787Z,100506.41
2022-08-17T10:30:15.701Z,100509.69
2022-08-17T10:32:25.769Z,100510.66
2022-08-17T10:33:34.840Z,100512.72
2022-08-17T10:34:41.106Z,100518.88
2022-08-17T10:35:35.007Z,100523.25
2022-08-17T10:36:37.986Z,100514.41
2022-08-17T10:37:36.558Z,100521.34
2022-08-17T10:38:45.910Z,100526.72
2022-08-17T10:40:20.674Z,100517.94